Time;durP1;ratioP1;P1;durP2;ratioP2;P2;SDS_P1;SDS_P2;PMS_P1;PMS_P2;Temp;Humidity;BMP_temperature;BMP_pressure;BME280_temperature;BME280_humidity;BME280_pressure;Samples;Min_cycle;Max_cycle;Signal;HPM_P1;HPM_P2
2024/03/19 00:00:24;;;;;;;17.00;10.60;;;10.00;99.90;;;;;;5015929;28;20094;-74
2024/03/19 00:02:49;;;;;;;21.65;12.93;;;10.00;99.90;;;;;;5024154;28;20022;-75
2024/03/19 00:05:15;;;;;;;17.50;11.18;;;10.00;99.90;;;;;;5012822;28;20036;-75
2024/03/19 00:07:40;;;;;;;19.85;11.32;;;10.00;99.90;;;;;;5011996;28;20014;-75
2024/03/19 00:10:07;;;;;;;17.88;10.60;;;10.00;99.90;;;;;;5020440;28;20017;-75
2024/03/19 00:12:32;;;;;;;16.17;10.52;;;9.90;99.90;;;;;;5018451;28;20922;-75
2024/03/19 00:14:59;;;;;;;13.75;8.50;;;10.00;99.90;;;;;;5021953;28;20026;-75
2024/03/19 00:17:26;;;;;;;13.40;8.73;;;9.90;99.90;;;;;;5016664;28;20103;-75
2024/03/19 00:19:53;;;;;;;12.05;8.10;;;9.90;99.90;;;;;;5012347;28;20125;-75
2024/03/19 00:22:18;;;;;;;16.73;8.20;;;9.90;99.90;;;;;;5029897;28;20091;-75
2024/03/19 00:24:44;;;;;;;14.10;8.05;;;9.80;99.90;;;;;;5025724;28;20033;-75
2024/03/19 00:27:11;;;;;;;14.35;7.82;;;9.90;99.90;;;;;;5025702;28;20052;-76
2024/03/19 00:29:38;;;;;;;13.77;8.80;;;9.90;99.90;;;;;;5024710;28;20018;-75
2024/03/19 00:32:05;;;;;;;20.52;10.77;;;9.80;99.90;;;;;;5020377;28;20044;-76
2024/03/19 00:34:32;;;;;;;21.25;11.52;;;9.80;99.90;;;;;;5012653;28;20040;-76
2024/03/19 00:37:01;;;;;;;21.35;12.32;;;9.80;99.90;;;;;;5011404;28;20033;-76
2024/03/19 00:39:28;;;;;;;19.52;11.15;;;9.80;99.90;;;;;;5019424;28;20033;-76
2024/03/19 00:41:54;;;;;;;17.52;9.93;;;9.80;99.90;;;;;;5006133;28;20033;-75
2024/03/19 00:44:19;;;;;;;14.45;8.77;;;9.80;99.90;;;;;;5019540;28;20030;-76
2024/03/19 00:46:45;;;;;;;18.13;10.10;;;9.80;99.90;;;;;;5006172;28;20268;-76
2024/03/19 00:49:11;;;;;;;16.17;9.80;;;9.80;99.90;;;;;;5019586;28;20037;-75
2024/03/19 00:51:36;;;;;;;14.82;10.00;;;9.80;99.90;;;;;;5013641;28;20024;-75
2024/03/19 00:54:02;;;;;;;17.05;10.10;;;9.90;99.90;;;;;;5025417;28;20034;-74
2024/03/19 00:56:28;;;;;;;18.42;11.32;;;9.80;99.90;;;;;;5035155;28;20018;-74
2024/03/19 00:58:53;;;;;;;21.77;11.45;;;9.80;99.90;;;;;;5015662;28;20022;-74
2024/03/19 01:01:19;;;;;;;17.67;11.75;;;9.90;99.90;;;;;;5025706;28;20364;-75
2024/03/19 01:03:45;;;;;;;22.00;11.07;;;9.90;99.90;;;;;;5025019;28;20033;-75
2024/03/19 01:06:10;;;;;;;16.10;11.38;;;9.90;99.90;;;;;;5025294;28;20494;-75
2024/03/19 01:08:37;;;;;;;16.17;10.35;;;9.90;99.90;;;;;;5025375;28;20048;-76
2024/03/19 01:11:03;;;;;;;21.10;11.30;;;9.90;99.90;;;;;;5034732;28;20167;-75
2024/03/19 01:13:29;;;;;;;20.75;13.13;;;9.90;99.90;;;;;;5010989;28;20100;-75
2024/03/19 01:15:55;;;;;;;21.52;12.27;;;10.00;99.90;;;;;;5025495;28;20033;-75
2024/03/19 01:18:21;;;;;;;23.13;13.05;;;9.90;99.90;;;;;;5023268;28;20048;-75
2024/03/19 01:20:47;;;;;;;21.90;11.68;;;9.90;99.90;;;;;;5015530;28;20422;-76
2024/03/19 01:23:12;;;;;;;19.92;12.77;;;10.00;99.90;;;;;;5025461;28;20025;-76
2024/03/19 01:25:38;;;;;;;20.60;12.30;;;10.00;99.90;;;;;;5028482;28;20116;-75
2024/03/19 01:28:04;;;;;;;24.60;13.40;;;10.00;99.90;;;;;;5029265;28;20060;-75
2024/03/19 01:30:30;;;;;;;21.80;12.20;;;10.00;99.90;;;;;;5026452;28;20683;-75
2024/03/19 01:32:56;;;;;;;23.00;12.98;;;10.00;99.90;;;;;;5017601;28;20116;-75
2024/03/19 01:35:22;;;;;;;19.77;11.52;;;10.00;99.90;;;;;;5015284;28;20382;-75
2024/03/19 01:37:47;;;;;;;21.90;12.85;;;10.00;99.90;;;;;;5021986;28;20034;-75
2024/03/19 01:40:13;;;;;;;18.73;11.52;;;10.00;99.90;;;;;;5021467;28;20029;-75
2024/03/19 01:42:39;;;;;;;22.23;12.68;;;10.00;99.90;;;;;;5014904;28;20498;-75
2024/03/19 01:45:12;;;;;;;21.77;12.52;;;10.00;99.90;;;;;;5028411;28;20446;-75
2024/03/19 01:47:39;;;;;;;21.75;12.95;;;10.00;99.90;;;;;;5028621;28;20021;-75
2024/03/19 01:50:06;;;;;;;19.83;12.13;;;10.00;99.90;;;;;;5018943;28;20476;-75
2024/03/19 01:52:54;;;;;;;17.77;11.30;;;10.10;99.90;;;;;;5023145;28;20445;-75
2024/03/19 01:55:22;;;;;;;23.88;12.18;;;10.00;99.90;;;;;;5018575;28;20033;-75
2024/03/19 01:57:48;;;;;;;20.67;12.35;;;10.10;99.90;;;;;;5028940;28;20437;-75
2024/03/19 02:00:15;;;;;;;21.60;13.18;;;10.10;99.90;;;;;;5019409;28;20037;-75
2024/03/19 02:02:41;;;;;;;22.15;12.88;;;10.10;99.90;;;;;;5022453;28;20033;-75
2024/03/19 02:05:07;;;;;;;22.02;12.73;;;10.10;99.90;;;;;;5015192;28;20429;-75
2024/03/19 02:07:34;;;;;;;21.63;12.57;;;10.10;99.90;;;;;;5015444;28;20427;-75
2024/03/19 02:10:00;;;;;;;19.13;12.68;;;10.10;99.90;;;;;;5022066;28;20302;-75
2024/03/19 02:12:27;;;;;;;20.80;11.85;;;10.10;99.90;;;;;;5019586;28;20053;-75
2024/03/19 02:14:53;;;;;;;25.95;13.65;;;10.10;99.90;;;;;;5013869;28;20507;-76
2024/03/19 02:17:20;;;;;;;19.80;12.40;;;10.10;99.90;;;;;;5019125;28;20049;-75
2024/03/19 02:19:46;;;;;;;26.25;12.50;;;10.10;99.90;;;;;;5022271;28;20029;-75
2024/03/19 02:22:12;;;;;;;20.25;11.65;;;10.10;99.90;;;;;;5014691;28;20448;-76
2024/03/19 02:24:39;;;;;;;18.58;11.43;;;10.10;99.90;;;;;;5021215;28;20495;-75
2024/03/19 02:27:05;;;;;;;22.70;12.88;;;10.10;99.90;;;;;;5012987;28;20021;-75
2024/03/19 02:29:32;;;;;;;21.30;12.20;;;10.10;99.90;;;;;;5022329;28;20132;-75
2024/03/19 02:31:59;;;;;;;21.60;12.57;;;10.10;99.90;;;;;;5028031;28;20032;-76
2024/03/19 02:34:25;;;;;;;21.98;12.35;;;10.10;99.90;;;;;;5021114;28;20041;-76
2024/03/19 02:36:51;;;;;;;21.55;12.38;;;10.10;99.90;;;;;;5020500;28;20037;-75
2024/03/19 02:39:17;;;;;;;31.85;14.13;;;10.20;99.90;;;;;;5025953;28;20087;-76
2024/03/19 02:41:43;;;;;;;19.10;10.88;;;10.20;99.90;;;;;;5027797;28;20088;-75
2024/03/19 02:44:09;;;;;;;19.60;10.55;;;10.20;99.90;;;;;;5013190;28;20026;-75
2024/03/19 02:46:36;;;;;;;22.85;12.77;;;10.20;99.90;;;;;;5017806;28;20215;-75
2024/03/19 02:49:01;;;;;;;19.70;11.68;;;10.20;99.90;;;;;;5021586;28;20025;-75
2024/03/19 02:51:27;;;;;;;19.00;10.40;;;10.20;99.90;;;;;;5014344;28;20079;-75
2024/03/19 02:53:52;;;;;;;21.00;12.32;;;10.20;99.90;;;;;;5027655;28;20108;-76
2024/03/19 02:56:18;;;;;;;17.50;10.45;;;10.10;99.90;;;;;;5028108;28;20028;-75
2024/03/19 02:58:44;;;;;;;17.70;11.10;;;10.10;99.90;;;;;;5026962;28;20443;-76
2024/03/19 03:01:09;;;;;;;15.15;10.07;;;10.20;99.90;;;;;;5013637;28;20535;-75
2024/03/19 03:03:35;;;;;;;18.38;10.35;;;10.20;99.90;;;;;;5019211;28;20103;-75
2024/03/19 03:06:01;;;;;;;15.65;9.18;;;10.20;99.90;;;;;;5021081;28;20593;-75
2024/03/19 03:08:27;;;;;;;18.85;9.70;;;10.20;99.90;;;;;;5013895;28;20032;-75
2024/03/19 03:10:53;;;;;;;18.15;9.52;;;10.20;99.90;;;;;;5026803;28;20030;-74
2024/03/19 03:13:18;;;;;;;16.48;9.25;;;10.20;99.90;;;;;;5013350;28;20454;-75
2024/03/19 03:15:44;;;;;;;17.42;10.25;;;10.20;99.90;;;;;;5016264;28;20065;-75
2024/03/19 03:18:10;;;;;;;18.80;9.52;;;10.20;99.90;;;;;;5033071;28;20046;-75
2024/03/19 03:20:36;;;;;;;21.10;10.40;;;10.30;99.90;;;;;;5013668;28;20483;-75
2024/03/19 03:23:02;;;;;;;16.17;8.98;;;10.30;99.90;;;;;;5026947;28;20103;-75
2024/03/19 03:25:29;;;;;;;19.05;11.40;;;10.30;99.90;;;;;;5019734;28;20047;-75
2024/03/19 03:27:55;;;;;;;17.95;10.98;;;10.30;99.90;;;;;;5020041;28;20018;-75
2024/03/19 03:30:24;;;;;;;19.50;11.35;;;10.30;99.90;;;;;;5025593;28;20079;-75
2024/03/19 03:32:51;;;;;;;22.40;11.25;;;10.30;99.90;;;;;;5014393;28;20072;-75
2024/03/19 03:35:18;;;;;;;24.30;11.88;;;10.40;99.90;;;;;;5026248;28;20025;-75
2024/03/19 03:37:44;;;;;;;22.38;12.43;;;10.40;99.90;;;;;;5026945;28;20082;-75
2024/03/19 03:40:14;;;;;;;21.88;12.50;;;10.40;99.90;;;;;;5026271;28;20029;-75
2024/03/19 03:42:44;;;;;;;25.42;13.68;;;10.40;99.90;;;;;;5026502;28;20021;-75
2024/03/19 03:45:13;;;;;;;26.83;14.93;;;10.40;99.90;;;;;;5014390;28;20021;-75
2024/03/19 03:47:41;;;;;;;26.08;14.95;;;10.40;99.90;;;;;;5023548;28;20104;-75
2024/03/19 03:50:09;;;;;;;24.25;14.77;;;10.40;99.90;;;;;;5026087;28;20013;-75
2024/03/19 03:52:35;;;;;;;28.15;15.52;;;10.50;99.90;;;;;;5024593;28;20029;-75
2024/03/19 03:55:09;;;;;;;27.25;14.98;;;10.50;99.90;;;;;;5020334;28;20087;-75
2024/03/19 03:57:36;;;;;;;27.48;14.70;;;10.50;99.90;;;;;;5024675;28;20124;-75
2024/03/19 04:00:08;;;;;;;24.55;14.88;;;10.50;99.90;;;;;;5019449;28;20022;-75
2024/03/19 04:02:35;;;;;;;30.35;16.90;;;10.60;99.90;;;;;;5018642;28;20037;-76
2024/03/19 04:05:00;;;;;;;27.65;16.80;;;10.60;99.90;;;;;;5011903;28;20083;-75
2024/03/19 04:07:27;;;;;;;24.63;15.07;;;10.60;99.90;;;;;;5026249;28;20029;-74
2024/03/19 04:09:52;;;;;;;28.02;16.50;;;10.60;99.90;;;;;;5021727;28;20379;-75
2024/03/19 04:12:18;;;;;;;29.45;15.95;;;10.70;99.90;;;;;;5016336;28;20025;-74
2024/03/19 04:14:43;;;;;;;29.60;17.17;;;10.70;99.90;;;;;;5011631;28;20032;-74
2024/03/19 04:17:12;;;;;;;28.25;15.55;;;10.70;99.90;;;;;;5026103;28;20057;-76
2024/03/19 04:19:38;;;;;;;28.42;16.80;;;10.70;99.90;;;;;;5025296;28;20096;-75
2024/03/19 04:22:03;;;;;;;23.42;15.35;;;10.70;99.90;;;;;;5019032;28;20036;-75
2024/03/19 04:24:29;;;;;;;29.27;15.77;;;10.70;99.90;;;;;;5024080;28;20017;-76
2024/03/19 04:26:55;;;;;;;32.22;16.25;;;10.70;99.90;;;;;;5007548;28;20163;-75
2024/03/19 04:29:20;;;;;;;28.17;16.98;;;10.70;99.90;;;;;;5017198;28;20025;-75
2024/03/19 04:31:46;;;;;;;27.10;16.13;;;10.80;99.90;;;;;;5026097;28;20394;-76
2024/03/19 04:34:12;;;;;;;25.23;15.35;;;10.70;99.90;;;;;;5025628;28;20103;-76
2024/03/19 04:36:38;;;;;;;27.15;16.23;;;10.80;99.90;;;;;;5025929;28;20029;-75
2024/03/19 04:39:10;;;;;;;28.08;15.55;;;10.80;99.90;;;;;;5025340;28;20026;-75
2024/03/19 04:41:38;;;;;;;24.13;14.38;;;10.80;99.90;;;;;;5025744;28;20025;-76
2024/03/19 04:44:04;;;;;;;26.77;16.90;;;10.80;99.90;;;;;;5011730;28;20026;-75
2024/03/19 04:46:30;;;;;;;28.60;16.10;;;10.80;99.90;;;;;;5018397;28;20077;-76
2024/03/19 04:48:56;;;;;;;29.70;16.17;;;10.80;99.90;;;;;;5019812;28;20021;-75
2024/03/19 04:51:21;;;;;;;26.98;15.45;;;10.80;99.90;;;;;;5037993;28;20120;-75
2024/03/19 04:53:47;;;;;;;24.95;14.18;;;10.80;99.90;;;;;;5029190;28;20565;-75
2024/03/19 04:56:13;;;;;;;25.38;15.43;;;10.80;99.90;;;;;;5029585;28;20029;-75
2024/03/19 04:58:38;;;;;;;32.28;17.23;;;10.80;99.90;;;;;;5029517;28;20517;-75
2024/03/19 05:01:04;;;;;;;25.45;15.32;;;10.80;99.90;;;;;;5027695;28;20116;-76
2024/03/19 05:03:29;;;;;;;24.50;15.38;;;10.80;99.90;;;;;;5017292;28;20021;-75
2024/03/19 05:05:55;;;;;;;26.88;15.27;;;10.80;99.90;;;;;;5029031;28;20025;-76
2024/03/19 05:08:21;;;;;;;25.05;14.05;;;10.90;99.90;;;;;;5023946;28;20018;-75
2024/03/19 05:10:48;;;;;;;28.05;15.43;;;10.90;99.90;;;;;;5020475;28;20017;-75
2024/03/19 05:13:14;;;;;;;23.08;12.88;;;10.90;99.90;;;;;;5024563;28;20029;-75
2024/03/19 05:15:40;;;;;;;30.38;15.30;;;10.90;99.90;;;;;;5018815;28;20025;-75
2024/03/19 05:18:07;;;;;;;27.80;14.90;;;10.90;99.90;;;;;;5027472;28;20498;-75
2024/03/19 05:20:34;;;;;;;22.17;14.88;;;10.90;99.90;;;;;;5015398;28;20025;-76
2024/03/19 05:23:00;;;;;;;22.83;13.48;;;10.90;99.90;;;;;;5029384;28;20430;-75
2024/03/19 05:25:25;;;;;;;24.75;14.32;;;10.90;99.90;;;;;;5014892;28;20022;-75
2024/03/19 05:27:52;;;;;;;26.70;14.82;;;10.90;99.90;;;;;;5017751;28;20033;-75
2024/03/19 05:30:19;;;;;;;22.90;14.18;;;10.90;99.90;;;;;;5013575;28;20411;-75
2024/03/19 05:32:44;;;;;;;24.27;14.68;;;10.90;99.90;;;;;;5023070;28;20022;-75
2024/03/19 05:35:10;;;;;;;26.17;14.38;;;10.90;99.90;;;;;;5021314;28;20030;-75
2024/03/19 05:37:36;;;;;;;23.70;15.27;;;11.00;99.90;;;;;;5028886;28;20028;-76
2024/03/19 05:40:06;;;;;;;25.60;15.45;;;11.00;99.90;;;;;;5034211;28;20061;-75
2024/03/19 05:42:32;;;;;;;21.35;12.73;;;11.00;99.90;;;;;;5014924;28;20539;-75
2024/03/19 05:44:58;;;;;;;24.13;14.30;;;11.00;99.90;;;;;;5018404;28;20026;-75
2024/03/19 05:47:24;;;;;;;24.08;14.38;;;11.00;99.90;;;;;;5022641;28;20036;-75
2024/03/19 05:49:50;;;;;;;25.27;15.35;;;11.00;99.90;;;;;;5015662;28;20022;-74
2024/03/19 05:52:16;;;;;;;22.95;15.02;;;11.00;99.90;;;;;;5028740;28;20029;-75
2024/03/19 05:54:42;;;;;;;26.85;15.93;;;11.00;99.90;;;;;;5014229;28;20095;-76
2024/03/19 05:57:08;;;;;;;24.15;14.20;;;11.00;99.90;;;;;;5028560;28;20403;-75
2024/03/19 05:59:33;;;;;;;26.75;15.45;;;11.00;99.90;;;;;;5027789;28;20034;-76
2024/03/19 06:02:00;;;;;;;27.83;16.15;;;10.90;99.90;;;;;;5028661;28;20017;-76
2024/03/19 06:04:28;;;;;;;29.58;17.40;;;10.90;99.90;;;;;;5013748;28;20518;-75
2024/03/19 06:06:54;;;;;;;27.10;15.85;;;10.90;99.90;;;;;;5021252;28;20018;-75
2024/03/19 06:09:19;;;;;;;24.13;15.35;;;10.90;99.90;;;;;;5021792;28;20076;-75
2024/03/19 06:11:47;;;;;;;24.55;15.63;;;10.90;99.90;;;;;;5023673;28;20075;-76
2024/03/19 06:14:14;;;;;;;25.65;14.73;;;10.90;99.90;;;;;;5021213;28;20021;-75
2024/03/19 06:16:40;;;;;;;25.27;15.63;;;11.00;99.90;;;;;;5019428;28;20045;-75
2024/03/19 06:19:06;;;;;;;27.42;14.75;;;11.00;99.90;;;;;;5029115;28;20497;-76
2024/03/19 06:21:32;;;;;;;26.77;15.20;;;11.00;99.90;;;;;;5019881;28;20032;-76
2024/03/19 06:23:59;;;;;;;25.33;15.98;;;10.90;99.90;;;;;;5028367;28;20018;-75
2024/03/19 06:26:25;;;;;;;25.17;14.15;;;10.90;99.90;;;;;;5013538;28;20026;-75
2024/03/19 06:28:50;;;;;;;27.23;16.25;;;10.90;99.90;;;;;;5028308;28;20026;-75
2024/03/19 06:31:17;;;;;;;25.08;16.38;;;11.00;99.90;;;;;;5025722;28;20497;-74
2024/03/19 06:33:43;;;;;;;29.73;16.25;;;11.00;99.90;;;;;;5027617;28;20021;-75
2024/03/19 06:36:10;;;;;;;23.98;14.55;;;11.00;99.90;;;;;;5027344;28;20017;-76
2024/03/19 06:38:35;;;;;;;30.65;16.23;;;11.00;99.90;;;;;;5015247;28;20490;-75
2024/03/19 06:41:01;;;;;;;24.92;13.57;;;11.00;99.90;;;;;;5025908;28;20071;-75
2024/03/19 06:43:28;;;;;;;23.67;14.10;;;11.00;99.90;;;;;;5026314;28;20107;-75
2024/03/19 06:45:54;;;;;;;24.88;15.25;;;11.00;99.90;;;;;;5020692;28;20509;-75
2024/03/19 06:48:19;;;;;;;24.30;14.52;;;11.00;99.90;;;;;;5027436;28;20029;-76
2024/03/19 06:50:45;;;;;;;25.92;16.65;;;11.00;99.90;;;;;;5027390;28;20026;-75
2024/03/19 06:53:11;;;;;;;27.58;16.15;;;11.00;99.90;;;;;;5027624;28;20028;-76
2024/03/19 06:55:37;;;;;;;26.95;16.10;;;11.10;99.90;;;;;;5015456;28;20037;-76
2024/03/19 06:58:03;;;;;;;24.48;14.52;;;11.10;99.90;;;;;;5022748;28;20028;-76
2024/03/19 07:00:29;;;;;;;26.48;14.45;;;11.20;99.90;;;;;;5026789;28;20026;-76
2024/03/19 07:02:55;;;;;;;30.98;15.27;;;11.20;99.90;;;;;;5020229;28;20401;-76
2024/03/19 07:05:22;;;;;;;25.95;15.48;;;11.20;99.90;;;;;;5024786;28;20058;-76
2024/03/19 07:07:48;;;;;;;31.48;15.38;;;11.20;99.90;;;;;;5026467;28;20079;-74
2024/03/19 07:10:13;;;;;;;24.45;16.17;;;11.30;99.90;;;;;;5025853;28;20485;-76
2024/03/19 07:12:39;;;;;;;27.60;14.05;;;11.30;99.90;;;;;;5027118;28;20021;-75
2024/03/19 07:15:10;;;;;;;26.70;15.05;;;11.30;99.90;;;;;;5025631;28;20024;-75
2024/03/19 07:17:39;;;;;;;22.73;14.23;;;11.30;99.90;;;;;;5026652;28;20064;-75
2024/03/19 07:20:09;;;;;;;23.13;15.27;;;11.30;99.90;;;;;;5024906;28;20478;-75
2024/03/19 07:22:40;;;;;;;24.95;15.23;;;11.30;99.90;;;;;;5025558;28;20033;-75
2024/03/19 07:25:07;;;;;;;;;;;11.30;99.90;;;;;;5026036;28;20022;-75
2024/03/19 07:27:37;;;;;;;24.75;13.43;;;11.30;99.90;;;;;;5023447;28;19917;-76
2024/03/19 07:30:11;;;;;;;23.77;13.45;;;11.30;99.90;;;;;;5017785;28;20025;-73
2024/03/19 07:32:37;;;;;;;21.38;12.88;;;11.30;99.90;;;;;;5026870;28;20389;-73
2024/03/19 07:35:04;;;;;;;23.15;12.85;;;11.30;99.90;;;;;;5024607;28;20030;-73
2024/03/19 07:37:30;;;;;;;25.75;14.27;;;11.30;99.90;;;;;;5019228;28;20029;-74
2024/03/19 07:39:59;;;;;;;22.98;13.25;;;11.30;99.90;;;;;;5024695;28;20494;-75
2024/03/19 07:42:24;;;;;;;20.90;13.93;;;11.40;99.90;;;;;;5026221;28;20033;-76
2024/03/19 07:44:51;;;;;;;21.77;13.65;;;11.40;99.90;;;;;;5026416;28;20215;-75
2024/03/19 07:47:18;;;;;;;24.25;13.18;;;11.40;99.90;;;;;;5026237;28;20550;-75
2024/03/19 07:49:45;;;;;;;22.48;12.75;;;11.40;99.90;;;;;;5027122;28;20018;-75
2024/03/19 07:52:11;;;;;;;22.48;13.52;;;11.50;99.90;;;;;;5026891;28;20048;-75
2024/03/19 07:54:36;;;;;;;24.60;14.15;;;11.50;99.90;;;;;;5020149;28;20496;-76
2024/03/19 07:57:02;;;;;;;21.85;14.73;;;11.50;99.90;;;;;;5016368;28;20037;-75
2024/03/19 07:59:28;;;;;;;26.60;14.00;;;11.60;99.90;;;;;;5025973;28;20502;-75
2024/03/19 08:01:53;;;;;;;22.73;13.23;;;11.60;99.90;;;;;;5015852;28;20071;-75
2024/03/19 08:04:20;;;;;;;18.80;12.07;;;11.60;99.90;;;;;;5014778;28;20491;-75
2024/03/19 08:06:45;;;;;;;21.70;11.90;;;11.70;99.90;;;;;;5012192;28;20495;-75
2024/03/19 08:09:11;;;;;;;23.48;11.93;;;11.70;99.90;;;;;;5026785;28;20151;-74
2024/03/19 08:11:37;;;;;;;20.33;10.77;;;11.70;99.90;;;;;;5023001;28;20056;-74
2024/03/19 08:14:03;;;;;;;20.90;12.40;;;11.80;99.90;;;;;;5015800;28;20478;-74
2024/03/19 08:16:28;;;;;;;20.92;11.95;;;11.80;99.90;;;;;;5021046;28;20036;-73
2024/03/19 08:18:54;;;;;;;19.35;11.07;;;11.80;99.90;;;;;;5017413;28;20357;-75
2024/03/19 08:21:21;;;;;;;19.27;10.75;;;11.90;99.90;;;;;;5014384;28;20044;-75
2024/03/19 08:23:50;;;;;;;14.20;8.55;;;11.90;99.90;;;;;;5022058;28;20029;-75
2024/03/19 08:26:16;;;;;;;15.80;9.15;;;11.90;99.90;;;;;;5025534;28;20036;-76
2024/03/19 08:28:42;;;;;;;16.65;9.07;;;12.00;99.90;;;;;;5010877;28;20590;-76
2024/03/19 08:31:09;;;;;;;15.85;9.07;;;12.00;99.90;;;;;;5012697;28;20037;-75
2024/03/19 08:33:36;;;;;;;14.00;8.82;;;12.00;99.90;;;;;;5024919;28;20029;-76
2024/03/19 08:36:04;;;;;;;16.73;8.13;;;12.10;99.90;;;;;;5025256;28;20022;-75
2024/03/19 08:38:33;;;;;;;14.65;8.30;;;12.10;99.90;;;;;;5012836;28;20083;-75
2024/03/19 08:41:00;;;;;;;16.55;8.23;;;12.20;99.90;;;;;;5022665;28;20030;-75
2024/03/19 08:43:26;;;;;;;14.95;7.72;;;12.20;99.90;;;;;;5025980;28;20053;-75
2024/03/19 08:45:52;;;;;;;12.90;7.82;;;12.30;99.90;;;;;;5022904;28;20061;-75
2024/03/19 08:48:18;;;;;;;11.90;6.97;;;12.40;99.90;;;;;;5024355;28;20033;-75
2024/03/19 08:50:43;;;;;;;12.13;6.82;;;12.50;99.90;;;;;;5022743;28;20017;-74
2024/03/19 08:53:09;;;;;;;14.63;7.13;;;12.60;99.90;;;;;;5010872;28;20025;-75
2024/03/19 08:55:38;;;;;;;12.18;6.60;;;12.70;99.90;;;;;;5023951;28;20064;-75
2024/03/19 08:58:06;;;;;;;11.10;6.22;;;12.80;99.90;;;;;;5019176;28;20017;-75
2024/03/19 09:00:32;;;;;;;10.27;5.30;;;12.90;99.90;;;;;;5016728;28;20087;-76
2024/03/19 09:02:58;;;;;;;8.60;4.05;;;13.00;99.90;;;;;;5023389;28;20025;-76
2024/03/19 09:05:24;;;;;;;11.52;4.68;;;13.20;99.90;;;;;;5024385;28;20474;-74
2024/03/19 09:07:49;;;;;;;8.55;3.58;;;13.30;99.90;;;;;;5025483;28;20025;-75
2024/03/19 09:10:15;;;;;;;8.38;3.75;;;13.40;99.90;;;;;;5018001;28;20030;-76
2024/03/19 09:12:41;;;;;;;6.25;3.03;;;13.60;99.90;;;;;;5018425;28;20504;-75
2024/03/19 09:15:11;;;;;;;6.88;2.80;;;13.70;99.90;;;;;;5024527;28;20037;-75
2024/03/19 09:17:40;;;;;;;5.25;2.90;;;13.80;99.90;;;;;;5024741;28;20053;-75
2024/03/19 09:20:07;;;;;;;5.50;2.53;;;13.90;99.90;;;;;;5019227;28;20036;-75
2024/03/19 09:22:33;;;;;;;5.10;2.75;;;14.00;99.90;;;;;;5020221;28;20094;-75
2024/03/19 09:25:00;;;;;;;6.57;2.78;;;14.10;99.90;;;;;;5009257;28;20745;-75
2024/03/19 09:27:26;;;;;;;6.43;2.80;;;14.20;99.90;;;;;;5027405;28;20291;-75
2024/03/19 09:29:52;;;;;;;6.82;2.15;;;14.30;99.90;;;;;;5020196;28;20017;-75
2024/03/19 09:32:18;;;;;;;4.07;2.47;;;14.40;99.90;;;;;;5023282;28;20021;-75
2024/03/19 09:34:44;;;;;;;4.47;2.08;;;14.40;99.90;;;;;;5014518;28;20033;-74
2024/03/19 09:37:10;;;;;;;4.95;2.35;;;14.40;99.90;;;;;;5020206;28;20530;-74
2024/03/19 09:39:36;;;;;;;4.45;2.15;;;14.50;99.90;;;;;;5025727;28;20528;-75
2024/03/19 09:42:14;;;;;;;4.10;1.70;;;14.60;99.90;;;;;;5026956;28;20043;-74
2024/03/19 09:44:44;;;;;;;3.85;1.70;;;14.60;99.90;;;;;;5015290;28;20030;-76
2024/03/19 09:47:16;;;;;;;4.00;1.85;;;14.70;99.90;;;;;;5028125;28;20644;-74
2024/03/19 09:49:42;;;;;;;3.33;1.35;;;14.70;99.90;;;;;;5008696;28;20022;-75
2024/03/19 09:52:08;;;;;;;5.32;1.33;;;14.70;99.90;;;;;;5019121;28;20013;-75
2024/03/19 09:54:34;;;;;;;2.05;1.25;;;14.70;99.90;;;;;;5024597;28;20025;-75
2024/03/19 09:57:04;;;;;;;3.92;2.08;;;14.80;99.90;;;;;;5017396;28;20122;-75
2024/03/19 09:59:31;;;;;;;4.57;1.60;;;14.90;99.90;;;;;;5014117;28;20105;-74
2024/03/19 10:01:57;;;;;;;8.50;2.28;;;15.00;99.90;;;;;;5028370;28;20017;-74
2024/03/19 10:04:23;;;;;;;6.93;2.55;;;15.10;99.90;;;;;;5015107;28;20048;-75
2024/03/19 10:06:50;;;;;;;5.43;2.22;;;15.20;99.90;;;;;;5024145;28;20036;-75
2024/03/19 10:09:16;;;;;;;5.45;2.25;;;15.20;99.90;;;;;;5015845;28;20018;-75
2024/03/19 10:11:43;;;;;;;2.83;1.80;;;15.20;99.90;;;;;;5022055;28;20026;-75
2024/03/19 10:14:10;;;;;;;5.32;2.30;;;15.20;99.90;;;;;;5019728;28;20482;-75
2024/03/19 10:16:43;;;;;;;3.58;2.08;;;15.30;99.90;;;;;;5013462;28;20462;-75
2024/03/19 10:19:12;;;;;;;4.82;2.55;;;15.40;99.90;;;;;;5017914;28;20498;-75
2024/03/19 10:21:39;;;;;;;6.10;2.92;;;15.40;99.90;;;;;;5024713;28;20106;-74
2024/03/19 10:24:16;;;;;;;9.10;3.30;;;15.50;99.90;;;;;;5028124;28;20022;-73
2024/03/19 10:26:43;;;;;;;6.07;3.10;;;15.60;99.90;;;;;;5024733;28;20037;-73
2024/03/19 10:29:13;;;;;;;6.72;3.60;;;15.70;99.90;;;;;;5015429;28;20188;-74
2024/03/19 10:31:41;;;;;;;8.55;3.60;;;15.80;99.90;;;;;;5016048;28;20025;-74
2024/03/19 10:34:18;;;;;;;9.57;3.35;;;15.80;99.90;;;;;;5022125;28;20022;-74
2024/03/19 10:36:49;;;;;;;7.05;3.70;;;15.70;99.90;;;;;;5018813;28;20121;-75
2024/03/19 10:39:17;;;;;;;;;;;15.70;99.90;;;;;;5024252;28;20036;-74
2024/03/19 10:41:46;;;;;;;8.70;4.07;;;15.60;99.90;;;;;;5017833;28;19916;-75
2024/03/19 10:44:15;;;;;;;7.55;3.65;;;15.60;99.90;;;;;;5026431;28;20033;-76
2024/03/19 10:46:42;;;;;;;9.63;4.15;;;15.60;99.90;;;;;;5027540;28;20025;-74
2024/03/19 10:49:13;;;;;;;8.63;4.13;;;15.50;99.90;;;;;;5027714;28;20100;-74
2024/03/19 10:51:39;;;;;;;6.72;4.38;;;15.60;99.90;;;;;;5026177;28;20438;-75
2024/03/19 10:54:06;;;;;;;10.82;4.68;;;15.60;99.90;;;;;;5014052;28;20092;-75
2024/03/19 10:56:33;;;;;;;6.80;3.05;;;15.60;99.90;;;;;;5013588;28;20030;-75
2024/03/19 10:58:59;;;;;;;5.95;3.75;;;15.60;99.90;;;;;;5027641;28;20441;-73
2024/03/19 11:01:25;;;;;;;8.00;3.53;;;15.60;99.90;;;;;;5022347;28;20025;-74
2024/03/19 11:03:58;;;;;;;7.57;3.17;;;15.60;99.90;;;;;;5026032;28;20074;-73
2024/03/19 11:06:25;;;;;;;9.68;3.28;;;15.60;99.90;;;;;;5025474;28;20092;-74
2024/03/19 11:08:56;;;;;;;8.98;2.97;;;15.60;99.90;;;;;;5025731;28;20029;-74
2024/03/19 11:11:31;;;;;;;10.25;3.22;;;15.60;99.90;;;;;;5026340;28;20025;-76
2024/03/19 11:14:01;;;;;;;9.50;2.65;;;15.60;99.90;;;;;;5027308;28;20029;-75
2024/03/19 11:16:37;;;;;;;9.45;3.00;;;15.50;99.90;;;;;;5026235;28;20103;-75
2024/03/19 11:19:14;;;;;;;11.32;3.35;;;15.60;99.90;;;;;;5026961;28;20140;-75
2024/03/19 11:21:40;;;;;;;9.93;3.05;;;15.60;99.90;;;;;;5024381;28;20075;-74
2024/03/19 11:24:23;;;;;;;8.18;3.30;;;15.60;99.90;;;;;;5018298;28;20434;-75
2024/03/19 11:26:53;;;;;;;10.25;3.00;;;15.60;99.90;;;;;;5025526;28;20034;-75
2024/03/19 11:29:18;;;;;;;11.40;2.70;;;15.70;99.90;;;;;;5021157;28;20030;-75
2024/03/19 11:31:44;;;;;;;8.63;3.55;;;15.80;99.90;;;;;;5018137;28;20364;-75
2024/03/19 11:34:15;;;;;;;8.63;3.63;;;15.90;99.90;;;;;;5026813;28;20033;-74
2024/03/19 11:36:51;;;;;;;7.90;3.97;;;16.10;99.90;;;;;;5025872;28;20109;-74
2024/03/19 11:39:17;;;;;;;11.18;3.80;;;16.20;99.90;;;;;;5025169;28;20455;-74
2024/03/19 11:41:43;;;;;;;8.15;3.60;;;16.30;99.90;;;;;;5023706;28;20395;-73
2024/03/19 11:44:21;;;;;;;11.73;3.42;;;16.40;99.90;;;;;;5013914;28;20037;-75
2024/03/19 11:46:48;;;;;;;9.07;3.92;;;16.50;99.90;;;;;;5022690;28;20041;-76
2024/03/19 11:49:25;;;;;;;10.65;3.13;;;16.50;99.90;;;;;;5024499;28;20025;-74
2024/03/19 11:51:56;;;;;;;8.60;3.08;;;16.50;99.90;;;;;;5024419;28;20036;-74
2024/03/19 11:54:22;;;;;;;10.45;3.25;;;16.60;99.90;;;;;;5023280;28;20036;-75
2024/03/19 11:56:50;;;;;;;12.45;3.38;;;16.60;99.90;;;;;;5014100;28;20108;-75
2024/03/19 11:59:16;;;;;;;9.02;2.97;;;16.60;99.90;;;;;;5012603;28;20768;-75
2024/03/19 12:01:42;;;;;;;8.27;2.63;;;16.70;99.90;;;;;;5024600;28;20580;-75
2024/03/19 12:04:10;;;;;;;10.30;2.78;;;16.80;99.90;;;;;;5014156;28;20026;-75
2024/03/19 12:06:37;;;;;;;6.15;2.40;;;16.90;99.90;;;;;;5035820;28;20472;-76
2024/03/19 12:09:04;;;;;;;10.15;2.40;;;16.90;99.90;;;;;;5024592;28;20536;-75
2024/03/19 12:11:30;;;;;;;6.90;2.45;;;16.90;99.90;;;;;;5020544;28;20022;-76
2024/03/19 12:13:56;;;;;;;8.45;2.35;;;16.80;99.90;;;;;;5014452;28;20108;-75
2024/03/19 12:16:21;;;;;;;8.25;2.17;;;16.80;99.90;;;;;;5022806;28;20044;-76
2024/03/19 12:18:47;;;;;;;5.43;2.17;;;16.80;99.90;;;;;;5018043;28;20026;-75
2024/03/19 12:21:16;;;;;;;8.63;2.88;;;16.80;99.90;;;;;;5018654;28;20030;-77
2024/03/19 12:23:41;;;;;;;6.10;2.47;;;16.80;99.90;;;;;;5021004;28;20097;-76
2024/03/19 12:26:10;;;;;;;7.43;2.53;;;16.70;99.90;;;;;;5017664;28;20117;-75
2024/03/19 12:28:39;;;;;;;7.75;2.75;;;16.70;99.90;;;;;;5025666;28;20359;-75
2024/03/19 12:31:05;;;;;;;9.13;2.65;;;16.70;99.90;;;;;;5012397;28;20017;-75
2024/03/19 12:33:40;;;;;;;10.90;3.03;;;16.60;99.90;;;;;;5013118;28;20105;-75